Time;durP1;ratioP1;P1;durP2;ratioP2;P2;SDS_P1;SDS_P2;PMS_P1;PMS_P2;Temp;Humidity;BMP_temperature;BMP_pressure;BME280_temperature;BME280_humidity;BME280_pressure;Samples;Min_cycle;Max_cycle;Signal;HPM_P1;HPM_P2
2023/07/14 00:01:21;;;;;;;10.68;9.38;;;15.30;99.90;;;;;;6047615;23;20026;-71
2023/07/14 00:03:47;;;;;;;11.65;9.93;;;15.30;99.90;;;;;;6073386;23;20029;-72
2023/07/14 00:06:15;;;;;;;11.82;10.00;;;15.20;99.90;;;;;;6048103;23;20053;-72
2023/07/14 00:08:41;;;;;;;11.63;10.27;;;15.20;99.90;;;;;;6048486;23;20019;-72
2023/07/14 00:11:15;;;;;;;11.30;9.45;;;15.20;99.90;;;;;;6048682;23;20018;-72
2023/07/14 00:13:41;;;;;;;12.43;10.25;;;15.10;99.90;;;;;;6071640;23;20137;-71
2023/07/14 00:16:14;;;;;;;11.93;10.38;;;15.10;99.90;;;;;;6073251;23;20050;-72
2023/07/14 00:18:39;;;;;;;14.32;10.48;;;15.10;99.90;;;;;;6071778;23;20234;-72
2023/07/14 00:21:07;;;;;;;11.70;10.57;;;15.00;99.90;;;;;;6098504;23;20022;-72
2023/07/14 00:23:33;;;;;;;13.48;11.07;;;15.00;99.90;;;;;;6048926;23;20026;-72
2023/07/14 00:25:59;;;;;;;13.07;10.98;;;15.00;99.90;;;;;;6048540;23;20034;-71
2023/07/14 00:28:24;;;;;;;13.40;10.43;;;15.00;99.90;;;;;;6072135;23;20023;-72
2023/07/14 00:30:50;;;;;;;11.93;10.63;;;14.90;99.90;;;;;;6000338;23;20018;-72
2023/07/14 00:33:18;;;;;;;13.38;11.95;;;14.90;99.90;;;;;;6067063;23;20022;-72
2023/07/14 00:35:45;;;;;;;16.73;11.05;;;14.80;99.90;;;;;;6071703;23;20022;-72
2023/07/14 00:38:11;;;;;;;14.20;10.73;;;14.90;99.90;;;;;;6097440;23;20441;-72
2023/07/14 00:40:40;;;;;;;12.20;10.40;;;14.80;99.90;;;;;;6072257;23;20022;-72
2023/07/14 00:43:18;;;;;;;13.32;11.27;;;14.90;99.90;;;;;;6071999;23;20453;-72
2023/07/14 00:45:47;;;;;;;12.88;10.90;;;14.80;99.90;;;;;;6098642;23;20022;-71
2023/07/14 00:48:15;;;;;;;13.65;11.77;;;14.80;99.90;;;;;;6095171;23;20029;-72
2023/07/14 00:50:56;;;;;;;12.68;11.35;;;14.80;99.90;;;;;;6096794;23;20352;-72
2023/07/14 00:53:27;;;;;;;13.38;11.88;;;14.80;99.90;;;;;;6095903;23;20045;-72
2023/07/14 00:56:29;;;;;;;13.20;11.80;;;14.90;99.90;;;;;;6095869;23;20032;-73
2023/07/14 00:58:55;;;;;;;15.05;11.65;;;14.80;99.90;;;;;;6029071;23;20027;-72
2023/07/14 01:01:22;;;;;;;15.80;12.70;;;14.80;99.90;;;;;;6095404;23;20807;-73
2023/07/14 01:03:50;;;;;;;13.38;11.10;;;14.80;99.90;;;;;;6097058;23;20022;-73
2023/07/14 01:06:23;;;;;;;15.50;13.23;;;14.80;99.90;;;;;;6096082;23;20096;-73
2023/07/14 01:08:55;;;;;;;13.90;12.23;;;14.80;99.90;;;;;;6071738;23;20029;-73
2023/07/14 01:11:34;;;;;;;13.27;11.23;;;14.80;99.90;;;;;;6096453;23;20361;-72
2023/07/14 01:14:06;;;;;;;13.32;11.88;;;14.70;99.90;;;;;;6096726;23;20022;-73
2023/07/14 01:16:36;;;;;;;16.48;13.55;;;14.70;99.90;;;;;;6096393;23;20046;-72
2023/07/14 01:19:09;;;;;;;14.70;13.18;;;14.70;99.90;;;;;;6095723;23;20448;-73
2023/07/14 01:21:37;;;;;;;16.55;13.70;;;14.70;99.90;;;;;;6095200;23;20026;-72
2023/07/14 01:24:14;;;;;;;14.80;13.13;;;14.70;99.90;;;;;;6096443;23;20592;-73
2023/07/14 01:26:56;;;;;;;13.55;11.60;;;14.70;99.90;;;;;;6070979;23;20022;-73
2023/07/14 01:29:22;;;;;;;;;;;14.70;99.90;;;;;;6098662;23;20849;-72
2023/07/14 01:31:48;;;;;;;18.08;12.82;;;14.60;99.90;;;;;;6095369;23;19921;-73
2023/07/14 01:34:15;;;;;;;15.15;12.80;;;14.60;99.90;;;;;;6098078;23;20057;-73
2023/07/14 01:36:43;;;;;;;16.52;13.48;;;14.50;99.90;;;;;;6072642;23;20026;-73
2023/07/14 01:39:09;;;;;;;15.68;13.52;;;14.50;99.90;;;;;;6095466;23;20023;-72
2023/07/14 01:41:36;;;;;;;16.45;13.05;;;14.40;99.90;;;;;;6096372;23;20040;-72
2023/07/14 01:44:04;;;;;;;14.45;12.98;;;14.40;99.90;;;;;;6070958;23;20105;-73
2023/07/14 01:46:30;;;;;;;17.25;14.32;;;14.40;99.90;;;;;;6097089;23;20397;-72
2023/07/14 01:48:59;;;;;;;15.10;13.50;;;14.40;99.90;;;;;;6095577;23;20038;-72
2023/07/14 01:51:32;;;;;;;16.67;14.68;;;14.40;99.90;;;;;;6071969;23;20026;-72
2023/07/14 01:54:21;;;;;;;14.43;12.85;;;14.40;99.90;;;;;;6096270;23;20018;-72
2023/07/14 01:56:48;;;;;;;16.38;14.10;;;14.40;99.90;;;;;;6095463;23;20022;-72
2023/07/14 01:59:25;;;;;;;18.77;15.05;;;14.40;99.90;;;;;;6098736;23;20018;-72
2023/07/14 02:01:53;;;;;;;19.38;16.08;;;14.40;99.90;;;;;;6095655;23;20432;-72
2023/07/14 02:04:28;;;;;;;22.02;16.50;;;14.40;99.90;;;;;;6096707;23;20456;-72
2023/07/14 02:06:57;;;;;;;20.05;15.73;;;14.50;99.90;;;;;;6074213;23;20022;-72
2023/07/14 02:09:23;;;;;;;21.58;14.77;;;14.50;99.90;;;;;;6072868;23;20030;-72
2023/07/14 02:11:54;;;;;;;17.40;15.48;;;14.50;99.90;;;;;;6098819;23;20141;-73
2023/07/14 02:14:21;;;;;;;16.50;13.43;;;14.60;99.90;;;;;;6098557;23;20023;-70
2023/07/14 02:16:49;;;;;;;20.60;15.00;;;14.50;99.90;;;;;;6074362;23;20086;-72
2023/07/14 02:19:24;;;;;;;18.13;15.07;;;14.50;99.90;;;;;;6097721;23;20074;-72
2023/07/14 02:21:51;;;;;;;21.13;14.75;;;14.60;99.90;;;;;;6072547;23;20026;-72
2023/07/14 02:24:21;;;;;;;19.38;15.32;;;14.60;99.90;;;;;;6074143;23;20085;-72
2023/07/14 02:26:56;;;;;;;20.48;15.75;;;14.60;99.90;;;;;;6096676;23;20437;-72
2023/07/14 02:29:22;;;;;;;18.38;15.07;;;14.60;99.90;;;;;;6074199;23;20026;-73
2023/07/14 02:32:16;;;;;;;18.98;15.57;;;14.60;99.90;;;;;;6096956;23;20026;-73
2023/07/14 02:34:51;;;;;;;21.05;15.77;;;14.60;99.90;;;;;;6072030;23;20064;-72
2023/07/14 02:38:00;;;;;;;18.65;14.93;;;14.50;99.90;;;;;;6100067;23;20069;-72
2023/07/14 02:40:25;;;;;;;17.65;14.23;;;14.50;99.90;;;;;;6096971;23;20147;-72
2023/07/14 02:42:52;;;;;;;15.90;14.18;;;14.50;99.90;;;;;;6073429;23;20026;-73
2023/07/14 02:45:19;;;;;;;16.13;14.13;;;14.50;99.90;;;;;;6049725;23;20022;-72
2023/07/14 02:47:47;;;;;;;19.65;14.75;;;14.50;99.90;;;;;;6096800;23;20539;-73
2023/07/14 02:50:13;;;;;;;16.65;14.20;;;14.50;99.90;;;;;;6099541;23;20171;-72
2023/07/14 02:52:39;;;;;;;16.08;14.32;;;14.50;99.90;;;;;;6072562;23;20089;-73
2023/07/14 02:55:07;;;;;;;17.88;13.23;;;14.40;99.90;;;;;;6098165;23;20022;-71
2023/07/14 02:57:34;;;;;;;16.95;13.35;;;14.40;99.90;;;;;;6072990;23;20022;-71
2023/07/14 03:00:00;;;;;;;15.38;13.18;;;14.30;99.90;;;;;;6073576;23;20033;-72
2023/07/14 03:02:26;;;;;;;15.95;14.02;;;14.30;99.90;;;;;;6097081;23;20026;-72
2023/07/14 03:04:51;;;;;;;17.08;13.63;;;14.20;99.90;;;;;;6096240;23;20030;-72
2023/07/14 03:07:17;;;;;;;18.55;14.20;;;14.20;99.90;;;;;;6073880;23;20069;-72
2023/07/14 03:09:43;;;;;;;17.75;13.90;;;14.20;99.90;;;;;;6096376;23;20022;-72
2023/07/14 03:12:08;;;;;;;16.65;13.52;;;14.20;99.90;;;;;;6074106;23;20385;-72
2023/07/14 03:14:34;;;;;;;15.13;13.35;;;14.10;99.90;;;;;;6072242;23;20014;-72
2023/07/14 03:17:00;;;;;;;15.38;13.65;;;14.10;99.90;;;;;;6072808;23;20022;-72
2023/07/14 03:19:26;;;;;;;17.52;14.00;;;14.10;99.90;;;;;;6073272;23;20531;-73
2023/07/14 03:21:52;;;;;;;15.95;14.25;;;14.10;99.90;;;;;;6048193;23;20048;-72
2023/07/14 03:24:17;;;;;;;18.77;14.25;;;14.00;99.90;;;;;;6073397;23;20610;-72
2023/07/14 03:26:43;;;;;;;20.60;14.48;;;14.00;99.90;;;;;;6072313;23;20073;-72
2023/07/14 03:29:09;;;;;;;17.13;13.50;;;13.90;99.90;;;;;;6025821;23;20023;-72
2023/07/14 03:31:34;;;;;;;16.10;13.88;;;13.90;99.90;;;;;;6095931;23;20101;-71
2023/07/14 03:34:00;;;;;;;18.13;15.27;;;14.00;99.90;;;;;;6073340;23;20049;-72
2023/07/14 03:36:26;;;;;;;17.67;13.32;;;14.00;99.90;;;;;;6048750;23;20084;-72
2023/07/14 03:39:27;;;;;;;15.88;12.98;;;14.00;99.90;;;;;;6046695;23;20401;-72
2023/07/14 03:41:54;;;;;;;15.98;13.98;;;14.00;99.90;;;;;;6099352;23;20026;-72
2023/07/14 03:44:21;;;;;;;17.17;14.18;;;13.90;99.90;;;;;;6071925;23;20106;-72
2023/07/14 03:46:46;;;;;;;19.02;14.20;;;13.90;99.90;;;;;;6073028;23;20037;-72
2023/07/14 03:49:13;;;;;;;16.95;13.90;;;13.90;99.90;;;;;;6072429;23;20022;-72
2023/07/14 03:51:39;;;;;;;17.65;13.90;;;13.90;99.90;;;;;;6072010;23;20030;-72
2023/07/14 03:54:05;;;;;;;15.93;12.55;;;13.90;99.90;;;;;;6049689;23;20069;-72
2023/07/14 03:56:30;;;;;;;14.25;12.75;;;13.90;99.90;;;;;;6048058;23;20461;-72
2023/07/14 03:58:56;;;;;;;16.63;13.38;;;13.90;99.90;;;;;;6049686;23;20029;-72
2023/07/14 04:01:22;;;;;;;15.70;13.02;;;13.90;99.90;;;;;;6048141;23;20412;-72
2023/07/14 04:03:47;;;;;;;15.65;12.98;;;13.80;99.90;;;;;;6097723;23;20506;-72
2023/07/14 04:06:14;;;;;;;16.08;13.50;;;13.80;99.90;;;;;;6072725;23;20026;-72
2023/07/14 04:08:43;;;;;;;17.73;13.93;;;13.90;99.90;;;;;;6098063;23;20460;-72
2023/07/14 04:11:10;;;;;;;16.48;13.20;;;13.90;99.90;;;;;;6073217;23;20027;-72
2023/07/14 04:13:36;;;;;;;16.63;13.45;;;13.90;99.90;;;;;;6071526;23;20018;-72
2023/07/14 04:16:03;;;;;;;16.15;13.05;;;13.90;99.90;;;;;;6099127;23;20105;-72
2023/07/14 04:18:30;;;;;;;20.73;14.32;;;13.90;99.90;;;;;;6071562;23;20030;-72
2023/07/14 04:21:01;;;;;;;14.82;13.02;;;14.00;99.90;;;;;;6072924;23;20019;-72
2023/07/14 04:23:26;;;;;;;16.15;13.10;;;14.00;99.90;;;;;;6072430;23;20027;-72
2023/07/14 04:25:52;;;;;;;15.85;13.20;;;13.90;99.90;;;;;;6048300;23;20025;-72
2023/07/14 04:28:18;;;;;;;15.88;12.88;;;13.90;99.90;;;;;;6072455;23;20022;-72
2023/07/14 04:30:53;;;;;;;15.40;12.95;;;14.00;99.90;;;;;;6047669;23;20101;-71
2023/07/14 04:33:18;;;;;;;13.98;12.07;;;14.00;99.90;;;;;;6077754;23;20018;-72
2023/07/14 04:35:44;;;;;;;18.20;13.10;;;14.10;99.90;;;;;;6100163;23;20282;-72
2023/07/14 04:38:10;;;;;;;14.73;12.10;;;14.10;99.90;;;;;;6077526;23;20021;-72
2023/07/14 04:40:40;;;;;;;16.45;13.40;;;14.10;99.90;;;;;;6053332;23;20018;-72
2023/07/14 04:43:05;;;;;;;14.65;12.00;;;14.10;99.90;;;;;;6076455;23;20049;-72
2023/07/14 04:45:36;;;;;;;14.95;13.35;;;14.10;99.90;;;;;;6076906;23;20037;-72
2023/07/14 04:48:01;;;;;;;14.30;12.32;;;14.10;99.90;;;;;;6052128;23;20033;-72
2023/07/14 04:50:27;;;;;;;15.85;12.20;;;14.20;99.90;;;;;;6077730;23;20055;-72
2023/07/14 04:52:53;;;;;;;14.45;11.30;;;14.20;99.90;;;;;;6052410;23;20033;-72
2023/07/14 04:55:18;;;;;;;12.85;11.40;;;14.30;99.90;;;;;;6077347;23;20138;-72
2023/07/14 04:57:44;;;;;;;15.98;11.63;;;14.40;99.90;;;;;;6076737;23;20180;-72
2023/07/14 05:00:11;;;;;;;13.63;11.00;;;14.40;99.90;;;;;;6076472;23;20018;-72
2023/07/14 05:02:37;;;;;;;14.93;11.60;;;14.40;99.90;;;;;;6053660;23;20053;-72
2023/07/14 05:05:29;;;;;;;15.00;11.43;;;14.50;99.90;;;;;;6052116;23;20022;-72
2023/07/14 05:07:55;;;;;;;15.98;12.27;;;14.50;99.90;;;;;;6047515;23;20026;-72
2023/07/14 05:10:24;;;;;;;17.05;11.73;;;14.60;99.90;;;;;;6076677;23;20026;-72
2023/07/14 05:12:51;;;;;;;13.73;11.23;;;14.60;99.90;;;;;;6076652;23;20022;-73
2023/07/14 05:15:18;;;;;;;12.65;10.57;;;14.70;99.90;;;;;;6101672;23;20074;-72
2023/07/14 05:17:44;;;;;;;14.50;11.75;;;14.80;99.90;;;;;;6076552;23;20022;-72
2023/07/14 05:20:12;;;;;;;16.23;11.00;;;14.90;99.90;;;;;;6101780;23;20018;-72
2023/07/14 05:22:39;;;;;;;18.30;12.43;;;14.90;99.90;;;;;;6076250;23;20036;-72
2023/07/14 05:25:05;;;;;;;17.10;12.90;;;15.00;99.90;;;;;;6077790;23;20028;-72
2023/07/14 05:27:31;;;;;;;15.70;12.68;;;15.10;99.90;;;;;;6076124;23;20515;-73
2023/07/14 05:29:57;;;;;;;15.88;12.75;;;15.20;99.90;;;;;;6076728;23;20045;-72
2023/07/14 05:32:24;;;;;;;17.52;13.52;;;15.20;99.90;;;;;;6100936;23;20029;-72
2023/07/14 05:34:51;;;;;;;16.48;13.60;;;15.40;99.90;;;;;;6075854;23;20033;-72
2023/07/14 05:37:17;;;;;;;18.20;13.07;;;15.40;99.90;;;;;;6053547;23;20065;-72
2023/07/14 05:39:44;;;;;;;19.33;14.30;;;15.40;99.90;;;;;;6075302;23;20110;-72
2023/07/14 05:42:10;;;;;;;19.30;14.68;;;15.50;99.90;;;;;;6077269;23;20037;-72
2023/07/14 05:44:36;;;;;;;18.08;14.60;;;15.50;99.90;;;;;;6052156;23;20059;-72
2023/07/14 05:47:03;;;;;;;21.77;15.38;;;15.60;99.90;;;;;;6076402;23;20022;-73
2023/07/14 05:49:28;;;;;;;20.17;15.35;;;15.60;99.90;;;;;;6100674;23;20029;-72
2023/07/14 05:51:54;;;;;;;19.63;16.00;;;15.60;99.90;;;;;;6099491;23;20074;-72
2023/07/14 05:54:20;;;;;;;18.95;14.93;;;15.70;99.90;;;;;;6077544;23;20022;-72
2023/07/14 05:56:46;;;;;;;21.20;15.73;;;15.70;99.90;;;;;;6051733;23;20057;-72
2023/07/14 05:59:12;;;;;;;21.50;16.10;;;15.70;99.90;;;;;;6053904;23;20384;-71
2023/07/14 06:01:38;;;;;;;18.70;15.10;;;15.80;99.90;;;;;;6100219;23;20018;-72
2023/07/14 06:04:05;;;;;;;19.90;16.10;;;15.80;99.90;;;;;;6076665;23;20105;-71
2023/07/14 06:06:31;;;;;;;20.25;16.25;;;15.80;99.90;;;;;;6100305;23;20022;-72
2023/07/14 06:08:58;;;;;;;18.85;14.65;;;15.80;99.90;;;;;;6052108;23;20022;-72
2023/07/14 06:11:23;;;;;;;19.20;14.90;;;15.80;99.90;;;;;;6076978;23;20033;-71
2023/07/14 06:13:49;;;;;;;20.33;16.13;;;15.90;99.90;;;;;;6051610;23;20029;-71
2023/07/14 06:16:15;;;;;;;21.23;16.02;;;15.90;99.90;;;;;;6101326;23;20022;-72
2023/07/14 06:18:41;;;;;;;17.38;15.57;;;16.00;99.90;;;;;;6075865;23;20101;-72
2023/07/14 06:21:08;;;;;;;21.42;16.35;;;16.10;99.90;;;;;;6076651;23;20041;-72
2023/07/14 06:23:34;;;;;;;19.23;15.68;;;16.10;99.90;;;;;;6052316;23;20033;-72
2023/07/14 06:26:00;;;;;;;18.48;15.40;;;16.10;99.90;;;;;;6076070;23;20109;-72
2023/07/14 06:28:26;;;;;;;20.98;16.05;;;16.10;99.90;;;;;;6101105;23;20026;-72
2023/07/14 06:31:00;;;;;;;21.10;16.67;;;16.10;99.90;;;;;;6125448;23;20032;-72
2023/07/14 06:33:26;;;;;;;19.65;16.10;;;16.10;99.90;;;;;;6100955;23;20357;-72
2023/07/14 06:35:55;;;;;;;20.92;16.38;;;16.30;99.90;;;;;;6028085;23;20022;-72
2023/07/14 06:38:22;;;;;;;19.60;15.32;;;16.50;99.90;;;;;;6076565;23;20028;-71
2023/07/14 06:40:57;;;;;;;19.30;14.52;;;16.70;99.90;;;;;;6076561;23;20109;-73
2023/07/14 06:43:24;;;;;;;17.45;13.98;;;16.90;99.90;;;;;;6098770;23;20025;-72
2023/07/14 06:45:50;;;;;;;15.65;13.95;;;17.10;99.90;;;;;;6092590;23;20034;-72
2023/07/14 06:48:16;;;;;;;17.92;12.70;;;17.20;99.90;;;;;;6089972;23;20411;-72
2023/07/14 06:50:42;;;;;;;17.33;13.07;;;17.40;99.90;;;;;;6092504;23;20460;-72
2023/07/14 06:53:08;;;;;;;18.55;13.05;;;17.50;99.90;;;;;;6092626;23;20062;-72
2023/07/14 06:55:38;;;;;;;13.48;11.60;;;17.70;99.90;;;;;;6087287;23;20026;-72
2023/07/14 06:58:05;;;;;;;17.48;11.60;;;17.80;99.90;;;;;;6088588;23;20030;-72
2023/07/14 07:00:31;;;;;;;14.48;11.65;;;17.90;99.90;;;;;;6087462;23;20033;-71
2023/07/14 07:02:57;;;;;;;15.57;13.20;;;18.10;99.90;;;;;;6088502;23;20029;-71
2023/07/14 07:05:23;;;;;;;17.00;12.02;;;18.20;99.90;;;;;;6063340;23;20029;-71
2023/07/14 07:07:49;;;;;;;14.00;11.57;;;18.30;99.90;;;;;;6065194;23;20026;-71
2023/07/14 07:10:16;;;;;;;16.45;11.55;;;18.40;99.90;;;;;;6088265;23;20018;-72
2023/07/14 07:12:42;;;;;;;16.85;11.82;;;18.50;99.90;;;;;;6089253;23;20026;-71
2023/07/14 07:15:08;;;;;;;16.70;10.73;;;18.60;99.90;;;;;;6089120;23;20476;-71
2023/07/14 07:17:34;;;;;;;13.38;9.02;;;18.70;99.90;;;;;;6113693;23;20062;-71
2023/07/14 07:20:00;;;;;;;11.23;8.77;;;18.70;99.90;;;;;;6064715;23;20025;-72
2023/07/14 07:22:26;;;;;;;13.35;7.63;;;18.90;99.90;;;;;;6087474;23;20028;-71
2023/07/14 07:24:52;;;;;;;12.18;8.23;;;18.90;99.90;;;;;;6041337;23;20514;-71
2023/07/14 07:27:17;;;;;;;16.63;7.85;;;19.00;99.90;;;;;;6111120;23;20805;-72
2023/07/14 07:29:43;;;;;;;10.70;8.02;;;19.10;99.90;;;;;;6114299;23;20092;-75
2023/07/14 07:32:10;;;;;;;11.90;8.20;;;19.10;99.90;;;;;;6089522;23;20040;-73
2023/07/14 07:34:36;;;;;;;10.43;8.23;;;19.20;99.90;;;;;;6084948;23;20033;-91
2023/07/14 07:37:02;;;;;;;9.20;7.63;;;19.40;99.90;;;;;;6041371;23;20093;-75
2023/07/14 07:39:29;;;;;;;9.50;8.00;;;19.50;99.90;;;;;;6063360;23;20036;-73
2023/07/14 07:41:55;;;;;;;9.63;7.75;;;19.60;99.90;;;;;;6114707;23;20108;-71
2023/07/14 07:44:21;;;;;;;10.30;7.32;;;19.60;99.90;;;;;;6087607;23;20455;-71
2023/07/14 07:46:46;;;;;;;10.55;7.88;;;19.70;99.90;;;;;;6088333;23;20022;-71
2023/07/14 07:49:12;;;;;;;11.80;7.30;;;19.80;99.90;;;;;;6064172;23;20045;-71
2023/07/14 07:51:38;;;;;;;11.07;7.32;;;19.80;99.90;;;;;;6063259;23;20034;-71
2023/07/14 07:54:04;;;;;;;12.27;8.30;;;19.90;99.90;;;;;;6064915;23;20033;-71
2023/07/14 07:56:30;;;;;;;9.85;7.38;;;19.90;99.90;;;;;;6063411;23;20681;-72
2023/07/14 07:58:56;;;;;;;9.65;7.55;;;19.90;99.90;;;;;;6089140;23;20026;-72
2023/07/14 08:01:24;;;;;;;9.00;7.45;;;20.00;99.90;;;;;;6063402;23;20122;-72
2023/07/14 08:03:53;;;;;;;9.73;7.05;;;20.20;99.90;;;;;;6040951;23;20081;-72
2023/07/14 08:06:21;;;;;;;8.38;6.13;;;20.30;99.90;;;;;;6087649;23;20029;-71
2023/07/14 08:08:47;;;;;;;7.13;5.70;;;20.40;99.90;;;;;;6113185;23;20046;-81
2023/07/14 08:11:13;;;;;;;7.63;6.22;;;20.50;99.90;;;;;;6088692;23;20057;-72
2023/07/14 08:13:40;;;;;;;7.63;5.38;;;20.50;99.90;;;;;;6087405;23;20100;-72
2023/07/14 08:16:06;;;;;;;7.72;5.68;;;20.50;99.90;;;;;;6089055;23;20024;-72
2023/07/14 08:18:32;;;;;;;7.55;5.20;;;20.50;99.90;;;;;;6063401;23;20022;-73
2023/07/14 08:20:59;;;;;;;6.28;5.05;;;20.60;99.90;;;;;;6063839;23;20022;-73
2023/07/14 08:23:25;;;;;;;7.78;5.70;;;20.60;99.90;;;;;;6088215;23;20060;-72
2023/07/14 08:25:59;;;;;;;9.27;7.85;;;20.50;99.90;;;;;;6087798;23;20021;-73
2023/07/14 08:28:27;;;;;;;8.65;6.88;;;20.50;99.90;;;;;;6064459;23;20030;-72
2023/07/14 08:30:55;;;;;;;6.68;5.60;;;20.50;99.90;;;;;;6086528;23;21305;-72
2023/07/14 08:33:23;;;;;;;7.45;5.75;;;20.60;99.90;;;;;;6086932;23;20106;-72
2023/07/14 08:35:49;;;;;;;8.07;6.97;;;20.80;99.90;;;;;;6062218;23;20030;-72
2023/07/14 08:38:15;;;;;;;12.00;5.80;;;20.80;99.90;;;;;;6087581;23;20049;-72
2023/07/14 08:41:22;;;;;;;8.13;5.80;;;20.70;99.90;;;;;;6041445;23;20077;-72
2023/07/14 08:44:33;;;;;;;8.82;5.57;;;20.80;99.90;;;;;;6042816;23;20137;-72
2023/07/14 08:47:01;;;;;;;7.75;5.50;;;20.80;99.90;;;;;;6028391;23;20032;-71
2023/07/14 08:49:46;;;;;;;12.75;6.18;;;21.00;99.90;;;;;;6064404;23;20030;-72
2023/07/14 08:52:21;;;;;;;6.85;4.95;;;21.20;99.90;;;;;;6061271;23;20176;-72
2023/07/14 08:54:57;;;;;;;8.25;5.20;;;21.30;99.90;;;;;;6064943;23;20025;-72
2023/07/14 08:57:25;;;;;;;8.07;4.93;;;21.50;99.90;;;;;;6113387;23;20053;-72
2023/07/14 09:00:03;;;;;;;7.88;5.13;;;21.40;99.90;;;;;;6038727;23;20017;-72
2023/07/14 09:02:39;;;;;;;7.47;4.50;;;21.40;99.90;;;;;;6112837;23;20054;-72
2023/07/14 09:05:16;;;;;;;7.40;3.90;;;21.40;99.90;;;;;;6086870;23;20076;-71
2023/07/14 09:07:43;;;;;;;6.22;4.25;;;21.40;99.90;;;;;;6064765;23;20033;-72
2023/07/14 09:10:12;;;;;;;7.13;3.80;;;21.50;99.90;;;;;;6063185;23;20022;-71
2023/07/14 09:12:49;;;;;;;5.40;3.63;;;21.60;99.90;;;;;;6086607;23;20047;-71
2023/07/14 09:15:22;;;;;;;3.95;3.40;;;21.80;99.90;;;;;;6087562;23;20022;-72
2023/07/14 09:18:14;;;;;;;6.47;3.40;;;21.70;99.90;;;;;;6085769;23;20057;-72
2023/07/14 09:20:45;;;;;;;4.45;3.47;;;21.60;99.90;;;;;;6068090;23;20022;-71
2023/07/14 09:23:30;;;;;;;;;;;21.50;99.90;;;;;;6059927;23;20021;-72
2023/07/14 09:26:16;;;;;;;5.22;3.58;;;21.30;99.90;;;;;;6086451;23;21003;-72
2023/07/14 09:28:48;;;;;;;4.18;2.97;;;21.30;99.90;;;;;;6113441;23;20108;-72
2023/07/14 09:31:26;;;;;;;4.95;3.42;;;21.20;99.90;;;;;;6086464;23;20264;-73
2023/07/14 09:33:57;;;;;;;5.03;3.45;;;21.00;99.90;;;;;;6087015;23;20045;-72
2023/07/14 09:36:24;;;;;;;5.07;3.13;;;21.10;99.90;;;;;;6087569;23;20036;-71
2023/07/14 09:38:55;;;;;;;3.88;3.08;;;21.10;99.90;;;;;;6061671;23;20022;-72
2023/07/14 09:41:25;;;;;;;4.05;3.10;;;21.10;99.90;;;;;;6087808;23;20022;-72
2023/07/14 09:43:57;;;;;;;6.32;3.38;;;21.10;99.90;;;;;;6085019;23;20034;-72
2023/07/14 09:46:24;;;;;;;7.00;3.15;;;21.40;99.90;;;;;;6040616;23;20029;-72
2023/07/14 09:49:10;;;;;;;8.50;3.20;;;21.70;99.90;;;;;;6086232;23;20496;-71
2023/07/14 09:51:36;;;;;;;4.28;3.03;;;22.00;99.90;;;;;;6111844;23;20018;-71
2023/07/14 09:54:10;;;;;;;5.38;3.28;;;22.10;99.90;;;;;;6063496;23;20033;-71
2023/07/14 09:56:42;;;;;;;5.80;3.30;;;22.30;99.90;;;;;;6086241;23;20089;-72
2023/07/14 09:59:27;;;;;;;5.25;3.35;;;22.50;99.90;;;;;;6087192;23;20018;-72
2023/07/14 10:02:02;;;;;;;5.05;3.30;;;22.70;99.90;;;;;;6111754;23;20028;-72
2023/07/14 10:04:30;;;;;;;3.65;2.92;;;22.50;99.90;;;;;;6062986;23;20485;-72
2023/07/14 10:07:25;;;;;;;3.92;3.17;;;22.20;99.90;;;;;;6062209;23;20281;-72
2023/07/14 10:10:08;;;;;;;5.32;3.72;;;21.80;99.90;;;;;;6111701;23;20053;-72
2023/07/14 10:12:40;;;;;;;3.70;3.22;;;21.50;99.90;;;;;;6112516;23;20085;-72
2023/07/14 10:15:30;;;;;;;5.25;3.67;;;21.30;99.90;;;;;;6087404;23;20051;-71
2023/07/14 10:18:01;;;;;;;5.18;3.85;;;21.50;99.90;;;;;;6060759;23;20022;-71
2023/07/14 10:20:27;;;;;;;5.47;3.87;;;21.80;99.90;;;;;;6064292;23;20044;-72
2023/07/14 10:22:57;;;;;;;4.55;3.75;;;22.00;99.90;;;;;;6061317;23;20033;-72
2023/07/14 10:25:24;;;;;;;4.75;3.85;;;22.10;99.90;;;;;;6093211;23;20046;-72
2023/07/14 10:28:05;;;;;;;6.43;3.75;;;22.10;99.90;;;;;;6101501;23;20018;-70
2023/07/14 10:30:51;;;;;;;6.00;4.45;;;22.20;99.90;;;;;;6126721;23;20078;-70
2023/07/14 10:33:25;;;;;;;4.28;3.80;;;22.30;99.90;;;;;;6102228;23;20523;-72
2023/07/14 10:35:59;;;;;;;5.35;3.67;;;22.50;99.90;;;;;;6076611;23;20041;-71
2023/07/14 10:38:52;;;;;;;4.93;4.05;;;22.60;99.90;;;;;;6101254;23;20018;-71
2023/07/14 10:41:20;;;;;;;6.18;3.72;;;22.50;99.90;;;;;;6063729;23;20285;-70
2023/07/14 10:44:03;;;;;;;5.80;4.18;;;22.40;99.90;;;;;;6126163;23;20032;-71
2023/07/14 10:46:36;;;;;;;4.53;3.53;;;22.30;99.90;;;;;;6101972;23;20029;-78
2023/07/14 10:49:46;;;;;;;7.95;3.85;;;22.20;99.90;;;;;;6077245;23;20036;-72
2023/07/14 10:52:26;;;;;;;4.53;4.00;;;22.10;99.90;;;;;;6058566;23;20033;-71
2023/07/14 10:55:11;;;;;;;9.52;4.00;;;22.10;99.90;;;;;;6128081;23;20482;-74
2023/07/14 10:57:57;;;;;;;5.75;3.80;;;22.10;99.90;;;;;;6126703;23;20112;-70
2023/07/14 11:00:36;;;;;;;6.85;4.57;;;22.00;99.90;;;;;;6125735;23;20049;-70
2023/07/14 11:03:31;;;;;;;5.78;4.65;;;21.70;99.90;;;;;;6102071;23;20093;-72
2023/07/14 11:06:20;;;;;;;5.05;4.07;;;21.50;99.90;;;;;;6100093;23;20030;-71
2023/07/14 11:08:53;;;;;;;6.25;4.20;;;21.40;99.90;;;;;;6098334;23;20411;-70
2023/07/14 11:11:41;;;;;;;5.93;4.20;;;21.30;99.90;;;;;;6127490;23;20021;-71
2023/07/14 11:14:31;;;;;;;6.55;4.05;;;21.30;99.90;;;;;;6100075;23;20026;-71
2023/07/14 11:17:00;;;;;;;4.28;3.75;;;21.40;99.90;;;;;;6100327;23;20053;-71
2023/07/14 11:19:47;;;;;;;6.82;4.22;;;21.60;99.90;;;;;;6101127;23;20041;-71
2023/07/14 11:22:34;;;;;;;5.95;3.95;;;21.60;99.90;;;;;;6098960;23;20021;-70
2023/07/14 11:25:26;;;;;;;4.47;3.40;;;21.60;99.90;;;;;;6127733;23;20033;-71
2023/07/14 11:27:51;;;;;;;5.32;3.38;;;22.10;99.90;;;;;;6100404;23;20061;-71
2023/07/14 11:30:27;;;;;;;4.95;3.42;;;22.10;99.90;;;;;;6099536;23;20032;-71
2023/07/14 11:33:17;;;;;;;5.68;3.30;;;22.20;99.90;;;;;;6077067;23;20037;-72
2023/07/14 11:35:45;;;;;;;6.10;3.33;;;22.30;99.90;;;;;;6100197;23;20029;-71
2023/07/14 11:38:35;;;;;;;3.90;3.15;;;22.30;99.90;;;;;;6076348;23;20368;-71
2023/07/14 11:41:01;;;;;;;4.43;3.40;;;22.30;99.90;;;;;;6127073;23;20510;-71
2023/07/14 11:43:31;;;;;;;7.93;3.97;;;22.60;99.90;;;;;;6099832;23;20037;-71
2023/07/14 11:46:03;;;;;;;4.43;3.20;;;22.80;99.90;;;;;;6101756;23;20049;-71
2023/07/14 11:48:34;;;;;;;;;;;23.10;99.90;;;;;;6076855;23;20022;-70
2023/07/14 11:51:09;;;;;;;4.35;3.03;;;22.90;99.90;;;;;;6127207;23;19972;-71
2023/07/14 11:53:38;;;;;;;5.15;3.55;;;22.70;99.90;;;;;;6076975;23;20073;-71
2023/07/14 11:56:25;;;;;;;5.57;3.30;;;22.50;99.90;;;;;;6126299;23;20025;-71
2023/07/14 11:59:15;;;;;;;4.40;3.10;;;22.30;99.90;;;;;;6127534;23;20018;-71
2023/07/14 12:01:47;;;;;;;4.75;3.10;;;22.60;99.90;;;;;;6100665;23;20065;-71
2023/07/14 12:04:33;;;;;;;4.57;2.83;;;22.90;99.90;;;;;;6100755;23;20444;-71
2023/07/14 12:07:22;;;;;;;3.67;2.70;;;23.20;99.90;;;;;;6101500;23;20029;-72
2023/07/14 12:10:10;;;;;;;6.78;3.22;;;22.90;99.90;;;;;;6075905;23;20486;-72
2023/07/14 12:12:39;;;;;;;4.65;2.88;;;22.80;99.90;;;;;;6126510;23;20029;-73
2023/07/14 12:15:43;;;;;;;4.28;2.88;;;22.60;99.90;;;;;;6100860;23;20024;-71
2023/07/14 12:18:34;;;;;;;2.95;2.65;;;22.50;99.90;;;;;;6075641;23;20022;-71
2023/07/14 12:21:15;;;;;;;;;;;22.30;99.90;;;;;;6127409;23;20049;-71
2023/07/14 12:23:57;;;;;;;5.22;2.88;;;22.10;99.90;;;;;;6126832;23;19917;-70
2023/07/14 12:26:47;;;;;;;5.50;3.40;;;22.20;99.90;;;;;;6099464;23;20045;-71
2023/07/14 12:29:16;;;;;;;3.65;2.40;;;22.20;99.90;;;;;;6077042;23;20492;-71
2023/07/14 12:31:47;;;;;;;3.25;2.60;;;22.20;99.90;;;;;;6126202;23;20025;-72
2023/07/14 12:34:17;;;;;;;4.40;2.80;;;22.20;99.90;;;;;;6097544;23;20479;-71
2023/07/14 12:36:44;;;;;;;5.13;3.05;;;22.10;99.90;;;;;;6071755;23;20027;-71
2023/07/14 12:39:10;;;;;;;6.72;3.53;;;22.10;99.90;;;;;;6094085;23;20058;-71
2023/07/14 12:41:39;;;;;;;4.93;3.45;;;22.00;99.90;;;;;;6072327;23;20011;-70
2023/07/14 12:44:21;;;;;;;4.93;3.20;;;22.00;99.90;;;;;;6094731;23;20026;-71
2023/07/14 12:46:47;;;;;;;;;;;21.90;99.90;;;;;;6071868;23;20033;-71
2023/07/14 12:49:36;;;;;;;6.45;3.28;;;21.90;99.90;;;;;;6071532;23;20298;-71
2023/07/14 12:52:33;;;;;;;3.85;2.88;;;21.90;99.90;;;;;;6094316;23;20022;-71
2023/07/14 12:55:01;;;;;;;5.30;2.83;;;21.90;99.90;;;;;;6096533;23;20215;-71
2023/07/14 12:57:31;;;;;;;4.55;3.33;;;21.90;99.90;;;;;;6071388;23;20049;-71